createdAt,value
2022-10-26T00:01:25.634Z,1.15
2022-10-26T00:06:30.016Z,2.00
2022-10-26T00:11:32.743Z,0.70
2022-10-26T00:16:35.310Z,1.77
2022-10-26T00:21:39.216Z,1.67
2022-10-26T00:26:41.829Z,1.48
2022-10-26T00:31:44.393Z,1.60
2022-10-26T00:36:48.184Z,1.60
2022-10-26T00:46:53.064Z,1.88
2022-10-26T00:51:57.006Z,1.67
2022-10-26T00:56:59.802Z,1.50
2022-10-26T01:02:02.571Z,1.77
2022-10-26T01:07:07.042Z,1.53
2022-10-26T01:12:12.498Z,1.60
2022-10-26T01:17:26.473Z,1.50
2022-10-26T01:22:35.956Z,1.67
2022-10-26T01:27:39.510Z,1.50
2022-10-26T01:32:47.415Z,1.20
2022-10-26T01:37:54.845Z,1.73
2022-10-26T01:42:58.571Z,1.63
2022-10-26T01:48:03.848Z,1.63
2022-10-26T01:53:06.344Z,1.70
2022-10-26T01:58:14.662Z,1.38
2022-10-26T02:03:21.676Z,1.38
2022-10-26T02:08:28.884Z,1.60
2022-10-26T02:13:34.830Z,1.38
2022-10-26T02:18:43.850Z,1.55
2022-10-26T02:23:47.976Z,1.52
2022-10-26T02:28:52.466Z,1.67
2022-10-26T02:33:58.111Z,1.65
2022-10-26T02:39:01.031Z,1.67
2022-10-26T02:44:07.613Z,1.98
2022-10-26T02:49:11.693Z,1.40
2022-10-26T02:54:16.863Z,1.50
2022-10-26T02:59:20.878Z,1.67
2022-10-26T03:04:30.687Z,1.40
2022-10-26T03:09:33.276Z,1.55
2022-10-26T03:14:36.606Z,1.43
2022-10-26T03:19:40.543Z,1.42
2022-10-26T03:24:47.378Z,1.30
2022-10-26T03:29:49.831Z,1.50
2022-10-26T03:34:53.739Z,1.38
2022-10-26T03:39:56.381Z,1.38
2022-10-26T03:44:58.683Z,1.60
2022-10-26T03:50:02.547Z,1.50
2022-10-26T03:55:06.164Z,1.05
2022-10-26T04:00:09.276Z,1.60
2022-10-26T04:05:13.155Z,1.30
2022-10-26T04:10:15.694Z,1.50
2022-10-26T04:15:18.824Z,1.58
2022-10-26T04:20:22.618Z,1.30
2022-10-26T04:25:27.515Z,1.60
2022-10-26T04:30:33.784Z,1.38
2022-10-26T04:35:37.795Z,1.57
2022-10-26T04:45:43.003Z,1.50
2022-10-26T04:50:47.549Z,1.95
2022-10-26T04:55:50.201Z,1.77
2022-10-26T05:00:53.080Z,2.10
2022-10-26T05:05:58.981Z,1.70
2022-10-26T05:11:01.520Z,1.60
2022-10-26T05:16:04.133Z,1.80
2022-10-26T05:21:08.260Z,1.75
2022-10-26T05:26:10.817Z,1.70
2022-10-26T05:31:13.661Z,1.80
2022-10-26T05:36:17.819Z,1.67
2022-10-26T05:41:20.425Z,2.17
2022-10-26T05:46:22.987Z,1.83
2022-10-26T05:51:26.823Z,2.13
2022-10-26T05:56:35.127Z,2.22
2022-10-26T06:01:42.081Z,2.20
2022-10-26T06:06:48.337Z,2.20
2022-10-26T06:11:51.190Z,2.13
2022-10-26T06:17:04.775Z,2.67
2022-10-26T06:22:14.181Z,2.00
2022-10-26T06:27:22.875Z,2.28
2022-10-26T06:32:26.040Z,2.35
2022-10-26T06:37:30.575Z,2.33
2022-10-26T06:42:33.562Z,1.98
2022-10-26T06:47:40.013Z,2.25
2022-10-26T06:52:45.295Z,1.90
2022-10-26T06:57:48.587Z,2.70
2022-10-26T07:02:52.058Z,1.73
2022-10-26T07:07:56.163Z,1.88
2022-10-26T07:18:03.140Z,2.38
2022-10-26T07:23:08.053Z,2.30
2022-10-26T07:28:11.367Z,1.75
2022-10-26T07:33:14.684Z,2.53
2022-10-26T07:38:18.629Z,1.50
2022-10-26T07:43:21.325Z,1.42
2022-10-26T07:48:23.926Z,1.30
2022-10-26T07:53:28.231Z,1.57
2022-10-26T07:58:30.955Z,2.17
2022-10-26T08:03:33.670Z,1.35
2022-10-26T08:08:37.499Z,1.60
2022-10-26T08:18:42.288Z,1.10
2022-10-26T08:23:46.302Z,3.63
2022-10-26T08:28:49.712Z,1.13
2022-10-26T08:33:52.341Z,0.88
2022-10-26T08:38:56.256Z,2.10
2022-10-26T08:44:06.491Z,2.30
2022-10-26T08:49:19.138Z,1.38
2022-10-26T08:54:26.721Z,1.65
2022-10-26T08:59:32.008Z,1.05
2022-10-26T09:04:35.725Z,1.38
2022-10-26T09:09:44.702Z,1.70
2022-10-26T09:14:53.299Z,1.58
2022-10-26T09:20:06.068Z,1.92
2022-10-26T09:30:15.632Z,1.90
2022-10-26T09:35:27.105Z,1.50
2022-10-26T09:40:34.251Z,2.00
2022-10-26T09:45:39.606Z,1.30
2022-10-26T09:50:44.539Z,1.33
2022-10-26T09:55:48.995Z,1.60
2022-10-26T10:00:53.222Z,1.00
2022-10-26T10:06:15.736Z,1.25
2022-10-26T10:11:18.229Z,0.98
2022-10-26T10:16:24.048Z,0.90
2022-10-26T10:21:34.174Z,1.10
2022-10-26T10:26:56.556Z,1.00
2022-10-26T10:32:01.303Z,1.20
2022-10-26T10:37:04.266Z,1.45
2022-10-26T10:42:08.889Z,1.02
2022-10-26T10:47:19.864Z,1.25
2022-10-26T10:52:27.283Z,1.10
2022-10-26T10:57:33.625Z,0.88
2022-10-26T11:02:51.052Z,1.50
2022-10-26T11:07:58.010Z,1.05
2022-10-26T11:13:03.770Z,1.10
2022-10-26T11:18:10.857Z,0.93
2022-10-26T11:23:18.111Z,1.10
2022-10-26T11:28:26.134Z,1.08
2022-10-26T11:33:32.062Z,0.93
2022-10-26T11:38:46.129Z,1.08
2022-10-26T11:43:49.836Z,1.00
2022-10-26T11:48:55.562Z,1.38
2022-10-26T11:54:02.743Z,1.42
2022-10-26T11:59:05.918Z,1.58
2022-10-26T12:09:16.470Z,1.15
2022-10-26T12:14:22.669Z,1.58
2022-10-26T12:24:38.898Z,1.80
2022-10-26T12:29:46.643Z,1.25
2022-10-26T12:34:59.475Z,1.30
2022-10-26T12:40:20.550Z,1.90
2022-10-26T12:45:24.898Z,1.95
2022-10-26T12:50:27.557Z,1.30
2022-10-26T12:55:48.970Z,1.40
2022-10-26T13:01:09.497Z,1.77
2022-10-26T13:06:18.597Z,1.70
2022-10-26T13:11:25.554Z,2.20
2022-10-26T13:16:30.343Z,1.40
2022-10-26T13:21:33.005Z,2.30
2022-10-26T13:26:55.507Z,1.88
2022-10-26T13:31:59.774Z,1.75
2022-10-26T13:37:07.969Z,1.67
2022-10-26T13:42:14.608Z,1.85
2022-10-26T13:47:28.435Z,1.60
2022-10-26T13:52:34.822Z,1.38
2022-10-26T13:57:39.502Z,1.60
2022-10-26T14:02:43.982Z,1.50
2022-10-26T14:07:52.630Z,1.33
2022-10-26T14:12:58.558Z,1.50
2022-10-26T14:18:04.026Z,1.58
2022-10-26T14:23:06.886Z,1.80
2022-10-26T14:28:21.300Z,1.50
2022-10-26T14:33:27.298Z,1.50
2022-10-26T14:38:43.318Z,1.50
2022-10-26T14:43:46.752Z,1.52
2022-10-26T14:48:54.391Z,2.05
2022-10-26T14:53:58.171Z,1.83
2022-10-26T14:59:00.810Z,1.90
2022-10-26T15:04:06.228Z,1.63
2022-10-26T15:09:29.430Z,1.60
2022-10-26T15:14:32.326Z,1.67
2022-10-26T15:19:36.744Z,2.20
2022-10-26T15:24:40.432Z,2.03
2022-10-26T15:29:43.587Z,1.83
2022-10-26T15:34:50.215Z,2.50
2022-10-26T15:39:52.631Z,1.65
2022-10-26T15:44:55.044Z,2.05
2022-10-26T15:49:59.098Z,1.50
2022-10-26T15:55:01.559Z,2.10
2022-10-26T16:00:04.920Z,2.08
2022-10-26T16:05:09.673Z,2.10
2022-10-26T16:10:16.682Z,2.20
2022-10-26T16:15:20.301Z,3.25
2022-10-26T16:25:27.233Z,3.00
2022-10-26T16:30:31.043Z,2.25
2022-10-26T16:35:34.065Z,2.72
2022-10-26T16:40:42.783Z,3.38
2022-10-26T16:45:45.789Z,2.50
2022-10-26T16:50:48.280Z,2.88
2022-10-26T16:55:52.101Z,3.90
2022-10-26T17:00:55.487Z,2.90
2022-10-26T17:05:58.537Z,2.92
2022-10-26T17:16:05.552Z,2.80
2022-10-26T17:21:08.750Z,3.80
2022-10-26T17:26:12.200Z,3.65
2022-10-26T17:31:16.398Z,2.78
2022-10-26T17:36:20.295Z,2.92
2022-10-26T17:41:22.956Z,3.83
2022-10-26T17:46:27.395Z,3.40
2022-10-26T17:51:30.733Z,3.20
2022-10-26T17:56:34.493Z,3.45
2022-10-26T18:01:38.734Z,3.38
2022-10-26T18:06:41.475Z,3.38
2022-10-26T18:11:44.002Z,3.13
2022-10-26T18:16:48.419Z,3.67
2022-10-26T18:21:50.962Z,3.65
2022-10-26T18:26:53.457Z,3.92
2022-10-26T18:31:57.943Z,4.10
2022-10-26T18:37:06.849Z,5.50
2022-10-26T18:42:09.448Z,5.78
2022-10-26T18:47:13.331Z,6.00
2022-10-26T18:52:15.773Z,6.30
2022-10-26T18:57:18.798Z,6.85
2022-10-26T19:02:23.182Z,5.07
2022-10-26T19:07:26.226Z,5.38
2022-10-26T19:12:28.819Z,6.87
2022-10-26T19:17:32.973Z,6.25
2022-10-26T19:22:35.660Z,6.97
2022-10-26T19:27:38.745Z,4.20
2022-10-26T19:32:42.964Z,4.13
2022-10-26T19:37:45.599Z,6.85
2022-10-26T19:42:48.296Z,5.20
2022-10-26T19:47:52.488Z,5.07
2022-10-26T19:52:55.255Z,5.05
2022-10-26T19:57:57.980Z,4.13
2022-10-26T20:03:01.807Z,4.47
2022-10-26T20:13:06.597Z,4.13
2022-10-26T20:18:12.069Z,5.03
2022-10-26T20:23:14.633Z,4.22
2022-10-26T20:28:17.721Z,5.10
2022-10-26T20:33:21.689Z,4.70
2022-10-26T20:38:24.696Z,4.97
2022-10-26T20:43:28.292Z,7.30
2022-10-26T20:48:32.430Z,5.93
2022-10-26T20:53:36.232Z,4.40
2022-10-26T20:58:41.098Z,4.32
2022-10-26T21:03:45.049Z,4.70
2022-10-26T21:08:49.563Z,4.20
2022-10-26T21:13:53.297Z,4.07
2022-10-26T21:18:57.087Z,3.20
2022-10-26T21:23:59.532Z,3.80
2022-10-26T21:29:02.135Z,2.63
2022-10-26T21:34:05.977Z,3.78
2022-10-26T21:44:23.527Z,3.90
2022-10-26T21:49:35.266Z,3.83
2022-10-26T21:54:37.953Z,2.83
2022-10-26T21:59:40.415Z,4.15
2022-10-26T22:04:44.270Z,3.72
2022-10-26T22:10:00.680Z,3.70
2022-10-26T22:15:10.141Z,3.97
2022-10-26T22:20:14.180Z,4.10
2022-10-26T22:25:23.019Z,3.67
2022-10-26T22:30:25.626Z,3.13
2022-10-26T22:35:30.065Z,3.30
2022-10-26T22:40:32.852Z,3.33
2022-10-26T22:45:35.397Z,3.80
2022-10-26T22:50:39.738Z,3.47
2022-10-26T22:55:42.307Z,4.05
2022-10-26T23:00:44.987Z,3.25
2022-10-26T23:05:59.299Z,2.65
2022-10-26T23:11:02.180Z,3.40
2022-10-26T23:16:06.031Z,3.40
2022-10-26T23:21:10.383Z,3.40
2022-10-26T23:26:14.298Z,3.55
2022-10-26T23:31:19.045Z,3.08
2022-10-26T23:36:22.924Z,3.45
2022-10-26T23:41:25.641Z,1.70
2022-10-26T23:46:28.247Z,1.52
2022-10-26T23:51:32.291Z,3.17
2022-10-26T23:56:35.129Z,2.25
